sensor_id;sensor_type;location;lat;lon;timestamp;P1;durP1;ratioP1;P2;durP2;ratioP2
41466;SDS011;27205;53.690;19.948;2023-03-23T00:05:02;13.20;;;12.30;;
41466;SDS011;27205;53.690;19.948;2023-03-23T00:10:05;13.10;;;12.20;;
41466;SDS011;27205;53.690;19.948;2023-03-23T00:15:08;13.50;;;12.60;;
41466;SDS011;27205;53.690;19.948;2023-03-23T00:20:14;14.10;;;13.10;;
41466;SDS011;27205;53.690;19.948;2023-03-23T00:25:16;13.30;;;12.30;;
41466;SDS011;27205;53.690;19.948;2023-03-23T00:30:19;13.50;;;12.40;;
41466;SDS011;27205;53.690;19.948;2023-03-23T00:35:21;14.50;;;13.50;;
41466;SDS011;27205;53.690;19.948;2023-03-23T00:40:24;12.80;;;11.90;;
41466;SDS011;27205;53.690;19.948;2023-03-23T00:50:30;13.10;;;12.10;;
41466;SDS011;27205;53.690;19.948;2023-03-23T00:55:33;13.60;;;12.60;;
41466;SDS011;27205;53.690;19.948;2023-03-23T01:00:35;13.50;;;12.50;;
41466;SDS011;27205;53.690;19.948;2023-03-23T01:05:39;13.60;;;12.70;;
41466;SDS011;27205;53.690;19.948;2023-03-23T01:10:41;13.30;;;12.30;;
41466;SDS011;27205;53.690;19.948;2023-03-23T01:15:44;11.50;;;10.70;;
41466;SDS011;27205;53.690;19.948;2023-03-23T01:20:47;13.40;;;12.40;;
41466;SDS011;27205;53.690;19.948;2023-03-23T01:25:50;13.20;;;12.30;;
41466;SDS011;27205;53.690;19.948;2023-03-23T01:30:58;14.40;;;13.40;;
41466;SDS011;27205;53.690;19.948;2023-03-23T01:36:10;13.20;;;12.20;;
41466;SDS011;27205;53.690;19.948;2023-03-23T01:41:15;14.30;;;13.30;;
41466;SDS011;27205;53.690;19.948;2023-03-23T01:46:19;13.20;;;12.20;;
41466;SDS011;27205;53.690;19.948;2023-03-23T01:51:24;13.60;;;12.40;;
41466;SDS011;27205;53.690;19.948;2023-03-23T01:56:30;12.40;;;11.60;;
41466;SDS011;27205;53.690;19.948;2023-03-23T02:01:39;12.90;;;12.00;;
41466;SDS011;27205;53.690;19.948;2023-03-23T02:06:46;13.90;;;13.00;;
41466;SDS011;27205;53.690;19.948;2023-03-23T02:11:49;13.60;;;12.60;;
41466;SDS011;27205;53.690;19.948;2023-03-23T02:33:06;15.80;;;14.60;;
41466;SDS011;27205;53.690;19.948;2023-03-23T02:38:14;12.90;;;11.90;;
41466;SDS011;27205;53.690;19.948;2023-03-23T02:43:18;13.50;;;12.50;;
41466;SDS011;27205;53.690;19.948;2023-03-23T02:48:24;13.80;;;12.90;;
41466;SDS011;27205;53.690;19.948;2023-03-23T02:53:33;14.50;;;13.40;;
41466;SDS011;27205;53.690;19.948;2023-03-23T02:58:38;13.90;;;12.90;;
41466;SDS011;27205;53.690;19.948;2023-03-23T03:03:41;14.70;;;13.60;;
41466;SDS011;27205;53.690;19.948;2023-03-23T03:14:04;15.70;;;14.50;;
41466;SDS011;27205;53.690;19.948;2023-03-23T03:24:27;14.40;;;13.40;;
41466;SDS011;27205;53.690;19.948;2023-03-23T03:29:35;15.50;;;14.40;;
41466;SDS011;27205;53.690;19.948;2023-03-23T03:34:42;13.30;;;12.30;;
41466;SDS011;27205;53.690;19.948;2023-03-23T03:39:45;14.70;;;13.50;;
41466;SDS011;27205;53.690;19.948;2023-03-23T03:44:47;13.50;;;12.50;;
41466;SDS011;27205;53.690;19.948;2023-03-23T03:49:49;14.10;;;13.10;;
41466;SDS011;27205;53.690;19.948;2023-03-23T03:54:51;14.20;;;13.20;;
41466;SDS011;27205;53.690;19.948;2023-03-23T03:59:53;15.40;;;14.30;;
41466;SDS011;27205;53.690;19.948;2023-03-23T04:04:56;14.20;;;13.10;;
41466;SDS011;27205;53.690;19.948;2023-03-23T04:09:58;14.90;;;13.80;;
41466;SDS011;27205;53.690;19.948;2023-03-23T04:15:00;14.50;;;13.40;;
41466;SDS011;27205;53.690;19.948;2023-03-23T04:20:03;14.30;;;13.20;;
41466;SDS011;27205;53.690;19.948;2023-03-23T04:25:16;15.90;;;14.70;;
41466;SDS011;27205;53.690;19.948;2023-03-23T04:30:23;15.50;;;14.20;;
41466;SDS011;27205;53.690;19.948;2023-03-23T04:35:26;14.60;;;13.60;;
41466;SDS011;27205;53.690;19.948;2023-03-23T04:40:30;17.00;;;15.70;;
41466;SDS011;27205;53.690;19.948;2023-03-23T04:45:33;15.80;;;14.70;;
41466;SDS011;27205;53.690;19.948;2023-03-23T04:50:39;17.20;;;15.90;;
41466;SDS011;27205;53.690;19.948;2023-03-23T04:55:41;15.40;;;14.30;;
41466;SDS011;27205;53.690;19.948;2023-03-23T05:00:44;19.40;;;17.90;;
41466;SDS011;27205;53.690;19.948;2023-03-23T05:05:51;18.00;;;16.50;;
41466;SDS011;27205;53.690;19.948;2023-03-23T05:10:57;19.60;;;18.10;;
41466;SDS011;27205;53.690;19.948;2023-03-23T05:16:05;17.60;;;16.20;;
41466;SDS011;27205;53.690;19.948;2023-03-23T05:21:08;16.20;;;15.00;;
41466;SDS011;27205;53.690;19.948;2023-03-23T05:26:10;16.70;;;15.60;;
41466;SDS011;27205;53.690;19.948;2023-03-23T05:31:12;15.60;;;14.50;;
41466;SDS011;27205;53.690;19.948;2023-03-23T05:36:15;16.10;;;14.90;;
41466;SDS011;27205;53.690;19.948;2023-03-23T05:41:17;15.70;;;14.60;;
41466;SDS011;27205;53.690;19.948;2023-03-23T05:46:19;19.50;;;17.50;;
41466;SDS011;27205;53.690;19.948;2023-03-23T05:51:22;18.00;;;16.30;;
41466;SDS011;27205;53.690;19.948;2023-03-23T05:56:24;15.70;;;14.60;;
41466;SDS011;27205;53.690;19.948;2023-03-23T06:01:27;15.50;;;14.30;;
41466;SDS011;27205;53.690;19.948;2023-03-23T06:06:29;13.90;;;13.00;;
41466;SDS011;27205;53.690;19.948;2023-03-23T06:11:33;14.50;;;13.40;;
41466;SDS011;27205;53.690;19.948;2023-03-23T06:16:35;15.10;;;14.10;;
41466;SDS011;27205;53.690;19.948;2023-03-23T06:21:38;13.00;;;12.10;;
41466;SDS011;27205;53.690;19.948;2023-03-23T06:26:40;13.60;;;12.60;;
41466;SDS011;27205;53.690;19.948;2023-03-23T06:31:44;12.50;;;11.40;;
41466;SDS011;27205;53.690;19.948;2023-03-23T06:36:50;13.70;;;12.60;;
41466;SDS011;27205;53.690;19.948;2023-03-23T06:41:52;14.10;;;13.10;;
41466;SDS011;27205;53.690;19.948;2023-03-23T06:46:55;11.70;;;10.80;;
41466;SDS011;27205;53.690;19.948;2023-03-23T06:51:57;13.30;;;12.20;;
41466;SDS011;27205;53.690;19.948;2023-03-23T06:57:01;10.10;;;9.40;;
41466;SDS011;27205;53.690;19.948;2023-03-23T07:02:04;11.30;;;10.50;;
41466;SDS011;27205;53.690;19.948;2023-03-23T07:07:10;10.00;;;9.20;;
41466;SDS011;27205;53.690;19.948;2023-03-23T07:12:15;9.90;;;9.10;;
41466;SDS011;27205;53.690;19.948;2023-03-23T07:17:18;9.80;;;9.00;;
41466;SDS011;27205;53.690;19.948;2023-03-23T07:22:20;10.20;;;9.30;;
41466;SDS011;27205;53.690;19.948;2023-03-23T07:27:23;10.20;;;9.40;;
41466;SDS011;27205;53.690;19.948;2023-03-23T07:32:25;9.30;;;8.60;;
41466;SDS011;27205;53.690;19.948;2023-03-23T07:37:28;9.40;;;8.50;;
41466;SDS011;27205;53.690;19.948;2023-03-23T07:42:30;8.50;;;7.90;;
41466;SDS011;27205;53.690;19.948;2023-03-23T07:47:32;8.90;;;8.30;;
41466;SDS011;27205;53.690;19.948;2023-03-23T07:52:35;6.50;;;6.10;;
41466;SDS011;27205;53.690;19.948;2023-03-23T07:57:38;9.10;;;8.40;;
41466;SDS011;27205;53.690;19.948;2023-03-23T08:02:41;8.60;;;7.90;;
41466;SDS011;27205;53.690;19.948;2023-03-23T08:07:43;8.10;;;7.40;;
41466;SDS011;27205;53.690;19.948;2023-03-23T08:12:46;7.20;;;6.60;;
41466;SDS011;27205;53.690;19.948;2023-03-23T08:17:52;8.00;;;7.40;;
41466;SDS011;27205;53.690;19.948;2023-03-23T08:22:55;7.20;;;6.70;;
41466;SDS011;27205;53.690;19.948;2023-03-23T08:27:58;7.50;;;6.90;;
41466;SDS011;27205;53.690;19.948;2023-03-23T08:33:03;7.30;;;6.80;;
41466;SDS011;27205;53.690;19.948;2023-03-23T08:38:06;7.40;;;6.80;;
41466;SDS011;27205;53.690;19.948;2023-03-23T08:43:08;7.30;;;6.80;;
41466;SDS011;27205;53.690;19.948;2023-03-23T08:48:10;7.60;;;7.00;;
41466;SDS011;27205;53.690;19.948;2023-03-23T08:53:13;7.40;;;6.80;;
41466;SDS011;27205;53.690;19.948;2023-03-23T08:58:15;6.60;;;6.10;;
41466;SDS011;27205;53.690;19.948;2023-03-23T09:03:18;7.30;;;6.80;;
41466;SDS011;27205;53.690;19.948;2023-03-23T09:08:20;7.30;;;6.60;;
41466;SDS011;27205;53.690;19.948;2023-03-23T09:13:22;6.70;;;6.20;;
41466;SDS011;27205;53.690;19.948;2023-03-23T09:18:25;7.30;;;6.80;;
41466;SDS011;27205;53.690;19.948;2023-03-23T09:23:27;6.90;;;6.40;;
41466;SDS011;27205;53.690;19.948;2023-03-23T09:28:29;6.80;;;6.30;;
41466;SDS011;27205;53.690;19.948;2023-03-23T09:33:32;5.90;;;5.20;;
41466;SDS011;27205;53.690;19.948;2023-03-23T09:38:35;5.10;;;4.70;;
41466;SDS011;27205;53.690;19.948;2023-03-23T09:48:59;4.10;;;3.80;;
41466;SDS011;27205;53.690;19.948;2023-03-23T10:04:39;5.20;;;4.40;;
41466;SDS011;27205;53.690;19.948;2023-03-23T10:09:48;4.20;;;3.80;;
41466;SDS011;27205;53.690;19.948;2023-03-23T10:25:19;3.30;;;3.00;;
41466;SDS011;27205;53.690;19.948;2023-03-23T10:30:28;4.50;;;3.70;;
41466;SDS011;27205;53.690;19.948;2023-03-23T10:35:33;4.50;;;4.20;;
41466;SDS011;27205;53.690;19.948;2023-03-23T10:40:45;5.80;;;5.10;;
41466;SDS011;27205;53.690;19.948;2023-03-23T10:45:57;8.50;;;7.60;;
41466;SDS011;27205;53.690;19.948;2023-03-23T10:51:03;7.10;;;6.40;;
41466;SDS011;27205;53.690;19.948;2023-03-23T10:56:24;4.00;;;3.10;;
41466;SDS011;27205;53.690;19.948;2023-03-23T11:01:32;9.90;;;8.90;;
41466;SDS011;27205;53.690;19.948;2023-03-23T11:06:36;9.90;;;9.00;;
41466;SDS011;27205;53.690;19.948;2023-03-23T11:11:48;11.30;;;10.20;;
41466;SDS011;27205;53.690;19.948;2023-03-23T11:16:57;7.80;;;7.10;;
41466;SDS011;27205;53.690;19.948;2023-03-23T11:27:07;5.60;;;5.10;;
41466;SDS011;27205;53.690;19.948;2023-03-23T11:32:11;12.40;;;11.10;;
41466;SDS011;27205;53.690;19.948;2023-03-23T11:37:19;3.70;;;2.60;;
41466;SDS011;27205;53.690;19.948;2023-03-23T11:42:43;3.30;;;3.00;;
41466;SDS011;27205;53.690;19.948;2023-03-23T11:47:56;2.60;;;2.40;;
41466;SDS011;27205;53.690;19.948;2023-03-23T11:53:13;2.00;;;1.90;;
41466;SDS011;27205;53.690;19.948;2023-03-23T11:58:37;5.40;;;5.00;;
41466;SDS011;27205;53.690;19.948;2023-03-23T12:09:17;4.40;;;4.00;;
41466;SDS011;27205;53.690;19.948;2023-03-23T12:25:43;4.50;;;4.20;;
41466;SDS011;27205;53.690;19.948;2023-03-23T12:42:12;11.40;;;10.30;;
41466;SDS011;27205;53.690;19.948;2023-03-23T12:52:42;7.90;;;7.20;;
41466;SDS011;27205;53.690;19.948;2023-03-23T12:58:09;4.30;;;4.00;;
41466;SDS011;27205;53.690;19.948;2023-03-23T13:08:55;5.70;;;5.20;;
41466;SDS011;27205;53.690;19.948;2023-03-23T13:25:18;15.30;;;13.70;;
41466;SDS011;27205;53.690;19.948;2023-03-23T13:30:23;11.50;;;10.40;;
41466;SDS011;27205;53.690;19.948;2023-03-23T13:35:26;18.20;;;16.50;;
41466;SDS011;27205;53.690;19.948;2023-03-23T13:40:42;15.00;;;13.50;;
41466;SDS011;27205;53.690;19.948;2023-03-23T13:45:47;15.30;;;13.70;;
41466;SDS011;27205;53.690;19.948;2023-03-23T13:56:05;15.30;;;13.80;;
41466;SDS011;27205;53.690;19.948;2023-03-23T14:01:35;8.10;;;7.30;;
41466;SDS011;27205;53.690;19.948;2023-03-23T14:06:47;7.40;;;6.70;;
41466;SDS011;27205;53.690;19.948;2023-03-23T14:11:56;6.80;;;6.20;;
41466;SDS011;27205;53.690;19.948;2023-03-23T14:17:11;3.70;;;3.40;;
41466;SDS011;27205;53.690;19.948;2023-03-23T14:22:21;3.30;;;2.80;;
41466;SDS011;27205;53.690;19.948;2023-03-23T14:27:25;3.20;;;3.00;;
41466;SDS011;27205;53.690;19.948;2023-03-23T14:32:29;2.70;;;2.50;;
41466;SDS011;27205;53.690;19.948;2023-03-23T14:37:34;2.20;;;2.00;;
41466;SDS011;27205;53.690;19.948;2023-03-23T14:42:39;2.30;;;2.10;;
41466;SDS011;27205;53.690;19.948;2023-03-23T14:47:46;1.90;;;1.80;;
41466;SDS011;27205;53.690;19.948;2023-03-23T14:52:53;2.50;;;2.30;;
41466;SDS011;27205;53.690;19.948;2023-03-23T14:58:07;2.50;;;2.30;;
41466;SDS011;27205;53.690;19.948;2023-03-23T15:03:12;2.90;;;2.70;;
41466;SDS011;27205;53.690;19.948;2023-03-23T15:08:25;2.40;;;2.30;;
41466;SDS011;27205;53.690;19.948;2023-03-23T15:13:34;3.30;;;3.00;;
41466;SDS011;27205;53.690;19.948;2023-03-23T15:24:34;2.70;;;2.50;;
41466;SDS011;27205;53.690;19.948;2023-03-23T15:29:46;2.30;;;2.10;;
41466;SDS011;27205;53.690;19.948;2023-03-23T15:34:49;2.20;;;2.00;;
41466;SDS011;27205;53.690;19.948;2023-03-23T15:39:52;2.00;;;1.90;;
41466;SDS011;27205;53.690;19.948;2023-03-23T15:55:28;2.00;;;1.90;;
41466;SDS011;27205;53.690;19.948;2023-03-23T16:00:39;1.90;;;1.80;;
41466;SDS011;27205;53.690;19.948;2023-03-23T16:05:43;2.10;;;1.90;;
41466;SDS011;27205;53.690;19.948;2023-03-23T16:10:47;2.60;;;2.00;;
41466;SDS011;27205;53.690;19.948;2023-03-23T16:15:52;2.20;;;2.10;;
41466;SDS011;27205;53.690;19.948;2023-03-23T16:20:56;2.80;;;2.50;;
41466;SDS011;27205;53.690;19.948;2023-03-23T16:25:59;3.10;;;2.90;;
41466;SDS011;27205;53.690;19.948;2023-03-23T16:31:03;2.70;;;2.50;;
41466;SDS011;27205;53.690;19.948;2023-03-23T16:36:09;1.90;;;1.80;;
41466;SDS011;27205;53.690;19.948;2023-03-23T16:41:14;2.70;;;2.50;;
41466;SDS011;27205;53.690;19.948;2023-03-23T16:46:18;3.10;;;2.50;;
41466;SDS011;27205;53.690;19.948;2023-03-23T16:51:22;2.70;;;2.40;;
41466;SDS011;27205;53.690;19.948;2023-03-23T16:56:25;3.10;;;2.90;;
41466;SDS011;27205;53.690;19.948;2023-03-23T17:01:29;2.80;;;2.60;;
41466;SDS011;27205;53.690;19.948;2023-03-23T17:06:33;3.20;;;3.00;;
41466;SDS011;27205;53.690;19.948;2023-03-23T17:11:36;3.20;;;3.00;;
41466;SDS011;27205;53.690;19.948;2023-03-23T17:16:39;3.60;;;3.30;;
41466;SDS011;27205;53.690;19.948;2023-03-23T17:21:43;3.50;;;3.20;;
41466;SDS011;27205;53.690;19.948;2023-03-23T17:26:46;3.20;;;3.00;;
41466;SDS011;27205;53.690;19.948;2023-03-23T17:31:50;3.10;;;2.90;;
41466;SDS011;27205;53.690;19.948;2023-03-23T17:36:54;3.70;;;3.40;;
41466;SDS011;27205;53.690;19.948;2023-03-23T17:41:58;3.40;;;3.10;;
41466;SDS011;27205;53.690;19.948;2023-03-23T17:47:02;4.30;;;3.90;;
41466;SDS011;27205;53.690;19.948;2023-03-23T17:52:06;3.50;;;3.20;;
41466;SDS011;27205;53.690;19.948;2023-03-23T17:57:09;2.40;;;2.30;;
41466;SDS011;27205;53.690;19.948;2023-03-23T18:02:13;4.00;;;3.50;;
41466;SDS011;27205;53.690;19.948;2023-03-23T18:07:17;4.20;;;3.90;;
41466;SDS011;27205;53.690;19.948;2023-03-23T18:12:25;3.60;;;3.30;;
41466;SDS011;27205;53.690;19.948;2023-03-23T18:17:29;5.30;;;4.90;;
41466;SDS011;27205;53.690;19.948;2023-03-23T18:22:32;4.80;;;4.50;;
41466;SDS011;27205;53.690;19.948;2023-03-23T18:27:36;5.80;;;5.30;;
41466;SDS011;27205;53.690;19.948;2023-03-23T18:32:40;4.60;;;4.20;;
41466;SDS011;27205;53.690;19.948;2023-03-23T18:37:43;4.50;;;4.20;;
41466;SDS011;27205;53.690;19.948;2023-03-23T18:42:49;5.00;;;4.60;;
41466;SDS011;27205;53.690;19.948;2023-03-23T18:47:53;5.10;;;4.70;;
41466;SDS011;27205;53.690;19.948;2023-03-23T18:52:56;4.40;;;4.10;;
41466;SDS011;27205;53.690;19.948;2023-03-23T18:58:02;4.10;;;3.80;;
41466;SDS011;27205;53.690;19.948;2023-03-23T19:08:10;4.50;;;4.20;;
41466;SDS011;27205;53.690;19.948;2023-03-23T19:13:13;5.60;;;4.10;;
41466;SDS011;27205;53.690;19.948;2023-03-23T19:18:19;4.50;;;4.10;;
41466;SDS011;27205;53.690;19.948;2023-03-23T19:28:27;4.00;;;3.70;;
41466;SDS011;27205;53.690;19.948;2023-03-23T19:33:33;3.50;;;3.30;;
41466;SDS011;27205;53.690;19.948;2023-03-23T19:38:37;7.70;;;7.00;;
41466;SDS011;27205;53.690;19.948;2023-03-23T19:43:41;11.80;;;10.80;;
41466;SDS011;27205;53.690;19.948;2023-03-23T19:48:45;5.80;;;5.30;;
41466;SDS011;27205;53.690;19.948;2023-03-23T19:53:49;4.30;;;4.00;;
41466;SDS011;27205;53.690;19.948;2023-03-23T19:58:53;3.50;;;3.30;;
41466;SDS011;27205;53.690;19.948;2023-03-23T20:03:57;2.90;;;2.70;;
41466;SDS011;27205;53.690;19.948;2023-03-23T20:09:02;3.00;;;2.80;;
41466;SDS011;27205;53.690;19.948;2023-03-23T20:14:08;2.20;;;2.10;;
41466;SDS011;27205;53.690;19.948;2023-03-23T20:19:12;2.50;;;2.30;;
41466;SDS011;27205;53.690;19.948;2023-03-23T20:24:16;2.00;;;1.90;;
41466;SDS011;27205;53.690;19.948;2023-03-23T20:29:19;2.60;;;2.40;;
41466;SDS011;27205;53.690;19.948;2023-03-23T20:34:23;1.90;;;1.80;;
41466;SDS011;27205;53.690;19.948;2023-03-23T20:39:33;1.40;;;1.30;;
41466;SDS011;27205;53.690;19.948;2023-03-23T20:44:38;1.90;;;1.80;;
41466;SDS011;27205;53.690;19.948;2023-03-23T20:49:43;1.90;;;1.80;;
41466;SDS011;27205;53.690;19.948;2023-03-23T20:54:55;2.10;;;2.00;;
41466;SDS011;27205;53.690;19.948;2023-03-23T20:59:58;2.10;;;2.00;;
41466;SDS011;27205;53.690;19.948;2023-03-23T21:05:02;1.60;;;1.50;;
41466;SDS011;27205;53.690;19.948;2023-03-23T21:10:07;1.70;;;1.60;;
41466;SDS011;27205;53.690;19.948;2023-03-23T21:15:11;1.40;;;1.30;;
41466;SDS011;27205;53.690;19.948;2023-03-23T21:20:14;1.70;;;1.60;;
41466;SDS011;27205;53.690;19.948;2023-03-23T21:25:18;2.40;;;2.30;;
41466;SDS011;27205;53.690;19.948;2023-03-23T21:30:36;2.50;;;2.30;;
41466;SDS011;27205;53.690;19.948;2023-03-23T21:35:43;2.40;;;2.20;;
41466;SDS011;27205;53.690;19.948;2023-03-23T21:40:47;2.20;;;2.00;;
41466;SDS011;27205;53.690;19.948;2023-03-23T21:45:51;2.00;;;1.80;;
41466;SDS011;27205;53.690;19.948;2023-03-23T21:51:03;2.50;;;2.30;;
41466;SDS011;27205;53.690;19.948;2023-03-23T21:56:10;1.50;;;1.40;;
41466;SDS011;27205;53.690;19.948;2023-03-23T22:01:13;2.10;;;2.00;;
41466;SDS011;27205;53.690;19.948;2023-03-23T22:06:19;2.80;;;2.50;;
41466;SDS011;27205;53.690;19.948;2023-03-23T22:11:33;3.70;;;3.40;;
41466;SDS011;27205;53.690;19.948;2023-03-23T22:16:36;4.00;;;3.60;;
41466;SDS011;27205;53.690;19.948;2023-03-23T22:21:40;4.30;;;3.90;;
41466;SDS011;27205;53.690;19.948;2023-03-23T22:26:43;4.60;;;4.20;;
41466;SDS011;27205;53.690;19.948;2023-03-23T22:31:47;2.80;;;2.60;;
41466;SDS011;27205;53.690;19.948;2023-03-23T22:36:51;2.70;;;2.50;;
41466;SDS011;27205;53.690;19.948;2023-03-23T22:41:54;3.20;;;2.70;;
41466;SDS011;27205;53.690;19.948;2023-03-23T22:46:58;3.00;;;2.80;;
41466;SDS011;27205;53.690;19.948;2023-03-23T22:52:01;2.20;;;2.10;;
41466;SDS011;27205;53.690;19.948;2023-03-23T22:57:05;2.60;;;2.40;;
41466;SDS011;27205;53.690;19.948;2023-03-23T23:02:08;2.50;;;2.30;;
41466;SDS011;27205;53.690;19.948;2023-03-23T23:07:12;2.80;;;2.70;;
41466;SDS011;27205;53.690;19.948;2023-03-23T23:12:16;2.20;;;2.10;;
41466;SDS011;27205;53.690;19.948;2023-03-23T23:22:24;1.00;;;1.00;;
41466;SDS011;27205;53.690;19.948;2023-03-23T23:27:28;2.60;;;2.40;;
41466;SDS011;27205;53.690;19.948;2023-03-23T23:32:31;1.70;;;1.40;;
41466;SDS011;27205;53.690;19.948;2023-03-23T23:37:35;1.20;;;1.10;;
41466;SDS011;27205;53.690;19.948;2023-03-23T23:42:39;1.70;;;1.50;;
41466;SDS011;27205;53.690;19.948;2023-03-23T23:52:47;1.90;;;1.70;;
41466;SDS011;27205;53.690;19.948;2023-03-23T23:57:52;1.70;;;1.60;;
